Time;durP1;ratioP1;P1;durP2;ratioP2;P2;SDS_P1;SDS_P2;PMS_P1;PMS_P2;Temp;Humidity;BMP_temperature;BMP_pressure;BME280_temperature;BME280_humidity;BME280_pressure;Samples;Min_cycle;Max_cycle;Signal;HPM_P1;HPM_P2
2022/01/05 00:00:11;;;;;;;20.00;2.33;;;;;;;2.78;95.28;100365.75;5074324;28;20060;-49
2022/01/05 00:02:40;;;;;;;15.48;2.17;;;;;;;2.77;95.29;100361.41;5074400;28;20063;-50
2022/01/05 00:05:10;;;;;;;9.23;1.63;;;;;;;2.76;94.54;100359.72;5074098;28;20060;-51
2022/01/05 00:07:38;;;;;;;13.40;2.72;;;;;;;2.81;92.25;100365.66;5075260;28;20547;-50
2022/01/05 00:10:07;;;;;;;8.85;1.48;;;;;;;2.68;92.02;100373.03;5075444;28;20140;-50
2022/01/05 00:12:36;;;;;;;7.97;1.67;;;;;;;2.62;92.54;100369.75;5074540;28;20160;-50
2022/01/05 00:15:05;;;;;;;10.80;1.83;;;;;;;2.49;93.04;100375.38;5074862;28;20052;-49
2022/01/05 00:17:35;;;;;;;15.75;3.00;;;;;;;2.30;94.20;100363.75;5074210;28;20143;-50
2022/01/05 00:20:04;;;;;;;20.17;2.58;;;;;;;2.18;95.63;100378.06;5074075;28;20141;-49
2022/01/05 00:22:32;;;;;;;15.27;2.17;;;;;;;2.15;97.20;100376.41;5074078;28;20139;-50
2022/01/05 00:25:01;;;;;;;9.38;1.73;;;;;;;2.14;97.92;100379.06;5075303;28;20053;-50
2022/01/05 00:27:29;;;;;;;12.52;2.60;;;;;;;2.17;98.56;100376.34;5074386;28;20140;-49
2022/01/05 00:29:58;;;;;;;13.05;1.70;;;;;;;2.06;98.58;100374.03;5074345;28;20060;-50
2022/01/05 00:32:26;;;;;;;12.35;2.55;;;;;;;1.86;99.37;100374.63;5074560;28;20095;-50
2022/01/05 00:34:56;;;;;;;17.08;2.45;;;;;;;1.74;100.00;100372.34;5073763;28;20056;-50
2022/01/05 00:37:25;;;;;;;20.63;2.70;;;;;;;1.63;100.00;100380.47;5074304;28;20060;-50
2022/01/05 00:39:53;;;;;;;16.17;3.47;;;;;;;1.50;100.00;100377.34;5073856;28;20131;-48
2022/01/05 00:42:22;;;;;;;10.05;2.10;;;;;;;1.45;100.00;100367.00;5073931;28;20504;-50
2022/01/05 00:44:50;;;;;;;13.43;2.35;;;;;;;1.41;100.00;100368.00;5075078;28;20053;-50
2022/01/05 00:47:18;;;;;;;13.30;2.55;;;;;;;1.32;100.00;100372.59;5074203;28;20135;-51
2022/01/05 00:49:47;;;;;;;9.30;1.50;;;;;;;1.22;100.00;100385.06;5073872;28;20057;-48
2022/01/05 00:52:16;;;;;;;14.13;1.85;;;;;;;1.17;100.00;100379.09;5074402;28;20567;-49
2022/01/05 00:54:45;;;;;;;19.85;2.75;;;;;;;1.18;100.00;100386.88;5073899;28;20132;-50
2022/01/05 00:57:15;;;;;;;17.52;2.10;;;;;;;1.19;100.00;100387.75;5074350;28;20531;-50
2022/01/05 00:59:43;;;;;;;19.52;2.40;;;;;;;1.29;100.00;100386.59;5077133;28;20420;-50
2022/01/05 01:02:11;;;;;;;19.15;2.42;;;;;;;1.18;100.00;100391.22;5078035;28;20095;-50
2022/01/05 01:04:40;;;;;;;11.90;2.00;;;;;;;1.11;100.00;100399.25;5078313;28;20060;-48
2022/01/05 01:07:08;;;;;;;8.73;1.67;;;;;;;1.06;100.00;100402.84;5077659;28;20135;-50
2022/01/05 01:09:38;;;;;;;12.13;2.05;;;;;;;1.01;100.00;100418.66;5078303;28;20066;-50
2022/01/05 01:12:08;;;;;;;14.38;1.85;;;;;;;1.23;100.00;100432.06;5077238;28;20048;-49
2022/01/05 01:14:36;;;;;;;14.23;2.28;;;;;;;1.51;100.00;100436.56;5077545;28;20063;-50
2022/01/05 01:17:05;;;;;;;9.00;1.30;;;;;;;1.73;100.00;100426.44;5077451;28;20139;-48
2022/01/05 01:19:33;;;;;;;10.00;1.50;;;;;;;1.81;100.00;100424.44;5077714;28;20095;-49
2022/01/05 01:22:03;;;;;;;5.78;0.90;;;;;;;1.87;100.00;100394.66;5077568;28;20063;-50
2022/01/05 01:24:31;;;;;;;6.72;1.27;;;;;;;1.97;100.00;100413.56;5078248;28;20131;-50
2022/01/05 01:27:01;;;;;;;3.03;0.90;;;;;;;2.10;100.00;100414.06;5077267;28;20098;-50
2022/01/05 01:29:29;;;;;;;5.82;1.40;;;;;;;2.30;100.00;100431.81;5077506;28;20135;-50
2022/01/05 01:31:58;;;;;;;7.93;1.67;;;;;;;2.33;100.00;100418.63;5078029;28;20060;-50
2022/01/05 01:34:26;;;;;;;19.08;2.47;;;;;;;2.36;100.00;100400.22;5078038;28;20052;-50
2022/01/05 01:36:55;;;;;;;8.50;1.33;;;;;;;2.37;99.58;100401.91;5077081;28;20131;-49
2022/01/05 01:39:23;;;;;;;12.93;2.38;;;;;;;2.35;99.47;100399.34;5077318;28;20136;-50
2022/01/05 01:41:51;;;;;;;8.32;1.33;;;;;;;2.31;99.11;100396.88;5077775;28;20135;-50
2022/01/05 01:44:21;;;;;;;12.43;1.55;;;;;;;2.25;98.92;100397.06;5076984;28;20064;-48
2022/01/05 01:46:49;;;;;;;9.00;1.52;;;;;;;2.20;98.35;100399.81;5077756;28;20060;-50
2022/01/05 01:49:18;;;;;;;6.18;2.05;;;;;;;2.25;96.82;100399.69;5076837;28;20056;-50
2022/01/05 01:51:46;;;;;;;7.43;1.92;;;;;;;2.30;94.22;100400.41;5077146;28;20057;-50
2022/01/05 01:54:14;;;;;;;7.65;1.20;;;;;;;2.23;94.22;100400.56;5076813;28;20053;-51
2022/01/05 01:56:45;;;;;;;13.88;1.65;;;;;;;2.32;91.35;100406.44;5077018;28;20060;-48
2022/01/05 01:59:13;;;;;;;9.75;1.70;;;;;;;2.30;91.91;100405.63;5077025;28;20053;-50
2022/01/05 02:01:43;;;;;;;12.85;1.83;;;;;;;2.15;92.73;100402.59;5077685;28;20053;-48
2022/01/05 02:04:12;;;;;;;9.20;1.77;;;;;;;2.05;93.08;100406.34;5077211;28;20109;-50
2022/01/05 02:06:40;;;;;;;9.65;1.67;;;;;;;1.93;94.00;100407.53;5076533;28;20056;-49
2022/01/05 02:09:08;;;;;;;5.53;1.08;;;;;;;2.00;94.05;100410.84;5076050;28;20510;-50
2022/01/05 02:11:39;;;;;;;7.38;1.90;;;;;;;2.00;93.34;100413.47;5075874;28;20063;-50
2022/01/05 02:14:07;;;;;;;6.93;1.63;;;;;;;1.94;94.36;100413.66;5076476;28;20060;-49
2022/01/05 02:16:40;;;;;;;13.18;1.90;;;;;;;1.84;94.74;100419.13;5076388;28;20052;-51
2022/01/05 02:19:10;;;;;;;9.95;1.95;;;;;;;1.87;94.63;100420.81;5076319;28;20444;-50
2022/01/05 02:21:42;;;;;;;11.07;1.58;;;;;;;1.70;95.44;100420.41;5076201;28;20063;-49
2022/01/05 02:24:11;;;;;;;9.52;1.85;;;;;;;1.62;96.13;100423.22;5076014;28;20074;-50
2022/01/05 02:26:39;;;;;;;13.38;1.80;;;;;;;1.66;96.13;100425.72;5076472;28;20052;-49
2022/01/05 02:29:08;;;;;;;12.25;2.17;;;;;;;1.67;96.20;100431.81;5076434;28;20404;-48
2022/01/05 02:31:36;;;;;;;10.23;2.00;;;;;;;1.56;97.35;100449.53;5076400;28;20056;-50
2022/01/05 02:34:05;;;;;;;11.98;1.88;;;;;;;1.51;98.44;100438.34;5077209;28;20099;-50
2022/01/05 02:36:33;;;;;;;15.93;1.65;;;;;;;1.44;98.52;100441.09;5076365;28;20185;-50
2022/01/05 02:39:03;;;;;;;11.73;2.35;;;;;;;1.44;99.02;100446.31;5076476;28;20064;-50
2022/01/05 02:41:32;;;;;;;12.93;2.75;;;;;;;1.36;99.65;100448.31;5075594;28;20543;-50
2022/01/05 02:44:00;;;;;;;11.38;2.00;;;;;;;1.29;99.52;100446.72;5076234;28;20059;-50
2022/01/05 02:46:29;;;;;;;6.63;1.40;;;;;;;1.24;100.00;100451.19;5076131;28;20060;-50
2022/01/05 02:48:58;;;;;;;12.60;2.17;;;;;;;1.20;100.00;100444.34;5076015;28;20088;-50
2022/01/05 02:51:27;;;;;;;16.20;1.98;;;;;;;1.17;100.00;100445.25;5076268;28;20063;-50
2022/01/05 02:53:55;;;;;;;13.45;1.95;;;;;;;1.17;100.00;100452.25;5076628;28;20053;-50
2022/01/05 02:56:25;;;;;;;10.63;2.40;;;;;;;1.05;100.00;100454.25;5075902;28;20057;-50
2022/01/05 02:58:53;;;;;;;11.88;2.20;;;;;;;1.00;100.00;100466.56;5075529;28;20062;-50
2022/01/05 03:01:21;;;;;;;11.65;1.80;;;;;;;0.99;100.00;100466.59;5075421;28;20056;-51
2022/01/05 03:03:50;;;;;;;11.10;2.85;;;;;;;0.98;100.00;100468.34;5075845;28;20125;-49
2022/01/05 03:06:18;;;;;;;13.32;2.17;;;;;;;0.95;100.00;100457.97;5075388;28;20052;-50
2022/01/05 03:08:46;;;;;;;11.60;2.15;;;;;;;0.88;100.00;100457.25;5075656;28;20067;-50
2022/01/05 03:11:14;;;;;;;13.32;1.67;;;;;;;1.03;100.00;100456.03;5075257;28;20056;-50
2022/01/05 03:13:44;;;;;;;14.77;2.15;;;;;;;1.09;100.00;100455.91;5074994;28;20052;-49
2022/01/05 03:16:12;;;;;;;11.95;1.70;;;;;;;1.17;100.00;100452.25;5075164;28;20057;-50
2022/01/05 03:18:41;;;;;;;10.07;1.70;;;;;;;1.15;100.00;100464.50;5075417;28;20068;-49
2022/01/05 03:21:09;;;;;;;12.57;1.90;;;;;;;1.03;100.00;100466.50;5076043;28;20057;-49
2022/01/05 03:23:37;;;;;;;13.20;1.73;;;;;;;0.95;100.00;100463.19;5075681;28;20066;-48
2022/01/05 03:26:05;;;;;;;19.83;2.83;;;;;;;0.99;100.00;100463.97;5075003;28;20056;-50
2022/01/05 03:28:33;;;;;;;10.93;2.15;;;;;;;0.94;100.00;100466.69;5075551;28;20404;-50
2022/01/05 03:31:03;;;;;;;5.82;1.85;;;;;;;0.80;100.00;100474.00;5074848;28;20075;-51
2022/01/05 03:33:32;;;;;;;16.88;2.55;;;;;;;0.78;100.00;100470.56;5074612;28;20107;-50
2022/01/05 03:36:00;;;;;;;11.02;1.70;;;;;;;0.74;100.00;100465.41;5074794;28;20061;-50
2022/01/05 03:38:29;;;;;;;12.18;1.83;;;;;;;0.72;100.00;100467.22;5074761;28;20052;-50
2022/01/05 03:40:58;;;;;;;9.88;1.63;;;;;;;0.58;100.00;100466.63;5074667;28;20424;-49
2022/01/05 03:43:26;;;;;;;7.43;1.52;;;;;;;0.55;100.00;100469.31;5074682;28;20056;-50
2022/01/05 03:45:54;;;;;;;12.07;1.60;;;;;;;0.59;100.00;100468.38;5074604;28;20057;-50
2022/01/05 03:48:24;;;;;;;15.60;1.73;;;;;;;0.72;100.00;100471.53;5074873;28;20067;-50
2022/01/05 03:50:53;;;;;;;8.90;1.58;;;;;;;0.81;100.00;100478.31;5074567;28;20052;-50
2022/01/05 03:53:21;;;;;;;12.93;2.22;;;;;;;0.88;100.00;100499.03;5074512;28;20065;-50
2022/01/05 03:55:49;;;;;;;12.68;1.30;;;;;;;1.03;100.00;100499.59;5074905;28;20057;-50
2022/01/05 03:58:17;;;;;;;11.48;1.80;;;;;;;1.21;100.00;100506.13;5074987;28;20060;-50
2022/01/05 04:00:47;;;;;;;12.35;1.90;;;;;;;1.41;100.00;100503.94;5075541;28;20052;-50
2022/01/05 04:03:16;;;;;;;13.73;1.80;;;;;;;1.56;100.00;100522.75;5074034;28;20056;-50
2022/01/05 04:05:46;;;;;;;13.25;2.17;;;;;;;1.77;100.00;100535.28;5074382;28;20106;-50
2022/01/05 04:08:15;;;;;;;6.88;1.35;;;;;;;1.93;100.00;100542.72;5074545;28;20053;-48
2022/01/05 04:10:43;;;;;;;6.85;1.25;;;;;;;2.02;100.00;100514.56;5074211;28;20135;-50
2022/01/05 04:13:12;;;;;;;6.63;1.58;;;;;;;2.09;100.00;100522.28;5074218;28;20068;-51
2022/01/05 04:15:40;;;;;;;7.20;1.52;;;;;;;2.21;100.00;100520.16;5073916;28;20063;-50
2022/01/05 04:18:08;;;;;;;14.30;1.63;;;;;;;2.17;100.00;100521.16;5074657;28;20049;-50
2022/01/05 04:20:37;;;;;;;9.10;1.45;;;;;;;2.22;100.00;100524.50;5075012;28;20057;-48
2022/01/05 04:23:06;;;;;;;7.20;1.23;;;;;;;2.21;100.00;100517.53;5074594;28;20061;-50
2022/01/05 04:25:35;;;;;;;7.72;1.50;;;;;;;2.14;100.00;100521.25;5073887;28;20056;-49
2022/01/05 04:28:04;;;;;;;11.38;3.60;;;;;;;2.10;100.00;100524.84;5074381;28;20518;-50
2022/01/05 04:30:33;;;;;;;5.85;1.08;;;;;;;2.10;99.69;100530.09;5074079;28;20057;-50
2022/01/05 04:33:01;;;;;;;4.85;0.98;;;;;;;2.00;99.45;100529.47;5073484;28;20562;-50
2022/01/05 04:35:49;;;;;;;5.88;1.00;;;;;;;1.88;99.52;100523.69;5073921;28;20052;-49
2022/01/05 04:38:19;;;;;;;4.63;0.80;;;;;;;1.76;99.91;100538.78;5074293;28;20056;-50
2022/01/05 04:40:47;;;;;;;5.45;1.02;;;;;;;1.73;100.00;100535.38;5074262;28;20059;-51
2022/01/05 04:43:15;;;;;;;12.20;1.88;;;;;;;1.62;100.00;100538.28;5073879;28;20095;-50
2022/01/05 04:45:43;;;;;;;11.32;1.55;;;;;;;1.66;100.00;100539.91;5074724;28;20060;-50
2022/01/05 04:48:12;;;;;;;7.15;2.65;;;;;;;1.66;100.00;100534.69;5074477;28;20056;-50
2022/01/05 04:50:40;;;;;;;8.15;1.05;;;;;;;1.66;100.00;100539.91;5074123;28;20056;-50
2022/01/05 04:53:11;;;;;;;6.35;1.38;;;;;;;1.50;100.00;100539.44;5074179;28;20056;-51
2022/01/05 04:55:40;;;;;;;10.90;1.33;;;;;;;1.46;100.00;100533.44;5074384;28;20082;-51
2022/01/05 04:58:09;;;;;;;18.00;3.80;;;;;;;1.26;100.00;100543.47;5073773;28;20523;-50
2022/01/05 05:00:37;;;;;;;9.40;2.05;;;;;;;1.32;100.00;100537.25;5073787;28;20500;-49
2022/01/05 05:03:05;;;;;;;11.55;2.00;;;;;;;1.33;100.00;100539.84;5073977;28;20143;-50
2022/01/05 05:05:35;;;;;;;12.02;1.67;;;;;;;1.37;100.00;100541.47;5074099;28;20110;-49
2022/01/05 05:08:04;;;;;;;9.48;1.15;;;;;;;1.38;100.00;100540.59;5073624;28;20507;-50
2022/01/05 05:10:32;;;;;;;8.90;4.13;;;;;;;1.48;100.00;100547.31;5074014;28;20061;-50
2022/01/05 05:13:07;;;;;;;7.63;1.55;;;;;;;1.40;100.00;100540.56;5073677;28;20060;-50
2022/01/05 05:15:36;;;;;;;6.28;1.15;;;;;;;1.35;100.00;100545.88;5074545;28;20059;-51
2022/01/05 05:18:04;;;;;;;9.23;1.20;;;;;;;1.30;100.00;100551.22;5074118;28;20056;-49
2022/01/05 05:20:33;;;;;;;5.40;1.00;;;;;;;1.35;100.00;100545.88;5073585;28;20061;-49
2022/01/05 05:23:01;;;;;;;5.05;1.20;;;;;;;1.25;100.00;100565.28;5073765;28;20067;-50
2022/01/05 05:25:30;;;;;;;7.35;1.40;;;;;;;1.16;100.00;100558.53;5074154;28;20056;-50
2022/01/05 05:27:58;;;;;;;7.93;1.40;;;;;;;1.13;100.00;100553.38;5073822;28;20063;-50
2022/01/05 05:30:35;;;;;;;11.57;1.58;;;;;;;1.11;100.00;100542.94;5074135;28;20056;-50
2022/01/05 05:33:04;;;;;;;10.70;1.92;;;;;;;0.99;100.00;100551.03;5073439;28;20049;-50
2022/01/05 05:35:32;;;;;;;9.80;1.58;;;;;;;0.97;100.00;100555.44;5073231;28;20060;-50
2022/01/05 05:38:00;;;;;;;9.90;1.35;;;;;;;0.94;100.00;100558.13;5073452;28;20424;-50
2022/01/05 05:40:29;;;;;;;5.55;1.13;;;;;;;0.86;100.00;100562.69;5074502;28;20052;-50
2022/01/05 05:42:57;;;;;;;6.00;1.58;;;;;;;0.74;100.00;100563.78;5073619;28;20063;-50
2022/01/05 05:45:25;;;;;;;7.80;1.60;;;;;;;0.63;100.00;100561.38;5074574;28;20443;-49
2022/01/05 05:47:55;;;;;;;10.70;1.63;;;;;;;0.55;100.00;100558.94;5077194;28;20056;-51
2022/01/05 05:50:24;;;;;;;7.15;1.27;;;;;;;0.49;100.00;100561.66;5077156;28;20063;-51
2022/01/05 05:52:52;;;;;;;6.00;1.27;;;;;;;0.42;100.00;100561.81;5077114;28;20098;-50
2022/01/05 05:55:20;;;;;;;5.80;1.58;;;;;;;0.32;100.00;100556.78;5076509;28;20071;-50
2022/01/05 05:57:48;;;;;;;11.23;1.92;;;;;;;0.29;100.00;100559.44;5076962;28;20501;-50
2022/01/05 06:00:17;;;;;;;9.07;2.35;;;;;;;0.26;100.00;100569.94;5076935;28;20052;-50
2022/01/05 06:02:45;;;;;;;9.50;1.42;;;;;;;0.24;100.00;100566.50;5076521;28;20059;-50
2022/01/05 06:05:15;;;;;;;6.95;2.25;;;;;;;0.14;100.00;100568.41;5076257;28;20064;-50
2022/01/05 06:07:43;;;;;;;9.48;2.00;;;;;;;0.17;100.00;100570.13;5076821;28;20095;-50
2022/01/05 06:10:12;;;;;;;11.23;2.10;;;;;;;0.17;100.00;100572.72;5076727;28;20071;-50
2022/01/05 06:12:40;;;;;;;12.90;1.58;;;;;;;0.28;100.00;100591.63;5076386;28;20057;-50
2022/01/05 06:15:09;;;;;;;6.32;1.20;;;;;;;0.39;100.00;100594.06;5077529;28;20421;-49
2022/01/05 06:17:37;;;;;;;11.07;1.55;;;;;;;0.38;100.00;100596.69;5077484;28;20057;-50
2022/01/05 06:20:07;;;;;;;8.52;1.27;;;;;;;0.49;100.00;100589.53;5076249;28;20496;-50
2022/01/05 06:22:40;;;;;;;9.55;1.40;;;;;;;0.66;100.00;100582.22;5076149;28;20496;-51
2022/01/05 06:25:10;;;;;;;6.57;1.13;;;;;;;0.65;100.00;100583.09;5075965;28;20067;-50
2022/01/05 06:27:38;;;;;;;4.75;1.20;;;;;;;0.57;100.00;100581.53;5076718;28;20493;-50
2022/01/05 06:30:08;;;;;;;9.10;1.30;;;;;;;0.49;100.00;100579.09;5076442;28;20056;-50
2022/01/05 06:32:37;;;;;;;7.60;1.80;;;;;;;0.43;100.00;100579.19;5076305;28;20052;-50
2022/01/05 06:35:05;;;;;;;4.45;1.48;;;;;;;0.43;100.00;100581.81;5075887;28;20064;-50
2022/01/05 06:37:34;;;;;;;8.88;1.30;;;;;;;0.31;100.00;100591.56;5076000;28;20450;-50
2022/01/05 06:40:04;;;;;;;4.53;1.20;;;;;;;0.34;100.00;100594.13;5076212;28;20061;-50
2022/01/05 06:42:32;;;;;;;7.78;2.05;;;;;;;0.43;100.00;100600.06;5075905;28;20064;-50
2022/01/05 06:45:01;;;;;;;8.95;1.40;;;;;;;0.44;100.00;100601.78;5076202;28;20056;-50
2022/01/05 06:47:29;;;;;;;5.07;1.40;;;;;;;0.53;100.00;100612.06;5075688;28;20052;-50
2022/01/05 06:49:58;;;;;;;11.25;1.80;;;;;;;0.55;100.00;100629.44;5075965;28;20075;-50
2022/01/05 06:52:28;;;;;;;8.65;1.75;;;;;;;0.47;100.00;100630.44;5076845;28;20392;-51
2022/01/05 06:54:56;;;;;;;5.78;1.17;;;;;;;0.35;100.00;100635.00;5075510;28;20512;-51
2022/01/05 06:57:26;;;;;;;6.80;1.42;;;;;;;0.30;100.00;100636.84;5075099;28;20492;-51
2022/01/05 06:59:54;;;;;;;11.20;3.17;;;;;;;0.17;100.00;100643.16;5075483;28;20053;-50
2022/01/05 07:02:22;;;;;;;14.40;3.28;;;;;;;0.10;100.00;100644.13;5075848;28;20052;-50
2022/01/05 07:04:50;;;;;;;14.10;3.25;;;;;;;0.15;100.00;100637.09;5075240;28;20061;-50
2022/01/05 07:07:19;;;;;;;10.05;1.95;;;;;;;0.36;100.00;100644.53;5075316;28;20059;-52
2022/01/05 07:09:47;;;;;;;11.43;2.65;;;;;;;0.41;100.00;100648.84;5075957;28;20063;-50
2022/01/05 07:12:15;;;;;;;21.55;2.42;;;;;;;0.44;100.00;100641.81;5075597;28;20063;-51
2022/01/05 07:14:45;;;;;;;9.18;1.88;;;;;;;0.31;100.00;100643.75;5074890;28;20060;-50
2022/01/05 07:17:13;;;;;;;8.70;1.77;;;;;;;0.31;100.00;100637.69;5075434;28;20405;-49
2022/01/05 07:19:46;;;;;;;14.20;2.72;;;;;;;0.28;100.00;100640.34;5076255;28;20052;-50
2022/01/05 07:22:14;;;;;;;11.90;1.90;;;;;;;0.26;100.00;100635.16;5075473;28;20076;-52
2022/01/05 07:24:42;;;;;;;13.95;2.03;;;;;;;0.28;100.00;100635.97;5074667;28;20063;-53
2022/01/05 07:27:10;;;;;;;14.63;1.80;;;;;;;0.14;100.00;100640.59;5074973;28;20143;-50
2022/01/05 07:29:39;;;;;;;7.90;1.67;;;;;;;0.13;100.00;100638.88;5075224;28;20070;-53
2022/01/05 07:32:09;;;;;;;8.45;1.55;;;;;;;0.10;100.00;100638.91;5074944;28;20171;-52
2022/01/05 07:34:37;;;;;;;4.65;1.52;;;;;;;0.01;100.00;100639.94;5075483;28;20056;-52
2022/01/05 07:37:06;;;;;;;8.82;1.75;;;;;;;0.10;100.00;100645.00;5075295;28;20090;-52
2022/01/05 07:39:39;;;;;;;10.90;2.03;;;;;;;0.10;100.00;100651.94;5074516;28;20099;-53
2022/01/05 07:42:09;;;;;;;11.23;2.13;;;;;;;-0.11;100.00;100633.16;5075252;28;20382;-52
2022/01/05 07:44:37;;;;;;;10.15;1.75;;;;;;;-0.08;100.00;100656.59;5074360;28;20053;-52
2022/01/05 07:47:08;;;;;;;11.63;1.73;;;;;;;0.01;100.00;100657.34;5074883;28;20063;-52
2022/01/05 07:49:37;;;;;;;8.95;2.28;;;;;;;-0.02;100.00;100659.13;5075217;28;20053;-53
2022/01/05 07:52:06;;;;;;;7.75;3.20;;;;;;;-0.07;100.00;100658.34;5074419;28;20411;-53
2022/01/05 07:54:35;;;;;;;14.35;2.53;;;;;;;0.01;100.00;100659.94;5074225;28;20067;-53
2022/01/05 07:57:04;;;;;;;14.15;2.00;;;;;;;0.01;100.00;100660.78;5074439;28;20064;-52
2022/01/05 07:59:33;;;;;;;7.82;1.80;;;;;;;0.07;100.00;100667.66;5074426;28;20064;-53
2022/01/05 08:02:01;;;;;;;9.00;2.45;;;;;;;0.08;100.00;100672.00;5074466;28;20060;-50
2022/01/05 08:04:31;;;;;;;8.88;1.80;;;;;;;0.10;100.00;100673.72;5074074;28;20056;-50
2022/01/05 08:06:59;;;;;;;11.02;1.77;;;;;;;0.05;100.00;100672.91;5075376;28;20071;-49
2022/01/05 08:09:29;;;;;;;4.22;1.80;;;;;;;0.03;100.00;100668.59;5074352;28;20059;-50
2022/01/05 08:11:58;;;;;;;17.27;2.10;;;;;;;0.01;100.00;100676.44;5074847;28;20048;-52
2022/01/05 08:14:26;;;;;;;18.17;2.00;;;;;;;0.07;100.00;100668.53;5073977;28;20134;-50
2022/01/05 08:16:54;;;;;;;8.48;2.42;;;;;;;0.13;100.00;100680.59;5074732;28;20104;-50
2022/01/05 08:19:22;;;;;;;8.40;1.90;;;;;;;0.15;100.00;100676.22;5074139;28;20052;-48
2022/01/05 08:21:52;;;;;;;10.45;2.00;;;;;;;0.21;100.00;100677.88;5074317;28;20386;-50
2022/01/05 08:24:20;;;;;;;10.88;2.08;;;;;;;0.24;100.00;100668.25;5074603;28;20053;-50
2022/01/05 08:26:49;;;;;;;11.02;2.60;;;;;;;0.29;100.00;100673.41;5074106;28;20053;-49
2022/01/05 08:29:17;;;;;;;6.30;2.10;;;;;;;0.40;100.00;100676.66;5074042;28;20052;-50
2022/01/05 08:31:45;;;;;;;9.93;2.50;;;;;;;0.46;100.00;100675.72;5074347;28;20512;-50
2022/01/05 08:34:13;;;;;;;6.45;2.15;;;;;;;0.47;100.00;100675.69;5074029;28;20056;-50
2022/01/05 08:36:41;;;;;;;7.30;2.80;;;;;;;0.50;100.00;100685.19;5073857;28;20160;-50
2022/01/05 08:39:11;;;;;;;9.35;2.10;;;;;;;0.54;100.00;100687.72;5074575;28;20053;-50
2022/01/05 08:41:39;;;;;;;13.57;2.17;;;;;;;0.61;100.00;100688.47;5074788;28;20068;-50
2022/01/05 08:44:08;;;;;;;9.68;2.22;;;;;;;0.61;100.00;100687.63;5074290;28;20060;-49
2022/01/05 08:46:36;;;;;;;8.15;2.10;;;;;;;0.68;100.00;100692.69;5073894;28;20079;-50
2022/01/05 08:49:04;;;;;;;8.68;3.28;;;;;;;0.91;100.00;100692.28;5074222;28;20412;-50
2022/01/05 08:51:33;;;;;;;10.38;2.58;;;;;;;1.02;100.00;100691.19;5074234;28;20061;-50
2022/01/05 08:54:01;;;;;;;11.90;2.42;;;;;;;1.16;100.00;100690.91;5074853;28;20086;-50
2022/01/05 08:56:30;;;;;;;12.15;3.13;;;;;;;1.35;100.00;100696.66;5074188;28;20059;-50
2022/01/05 08:58:59;;;;;;;12.07;2.83;;;;;;;1.71;100.00;100699.34;5074051;28;20515;-51
2022/01/05 09:01:27;;;;;;;10.48;3.00;;;;;;;2.07;100.00;100696.75;5074327;28;20056;-50
2022/01/05 09:03:55;;;;;;;14.50;2.60;;;;;;;2.48;100.00;100702.75;5073653;28;20508;-49
2022/01/05 09:06:24;;;;;;;14.27;3.38;;;;;;;2.85;100.00;100707.03;5074006;28;20057;-53
2022/01/05 09:08:52;;;;;;;12.35;3.30;;;;;;;3.13;100.00;100717.63;5073626;28;20397;-53
2022/01/05 09:11:22;;;;;;;16.35;2.30;;;;;;;3.55;100.00;100709.41;5073472;28;20135;-52
2022/01/05 09:13:52;;;;;;;10.10;3.05;;;;;;;3.85;100.00;100715.50;5073433;28;20052;-51
2022/01/05 09:16:20;;;;;;;6.28;2.10;;;;;;;4.19;95.63;100731.94;5074170;28;20061;-50
2022/01/05 09:18:50;;;;;;;13.43;2.60;;;;;;;4.50;94.98;100736.19;5073867;28;20059;-48
2022/01/05 09:21:18;;;;;;;11.68;2.10;;;;;;;4.86;92.71;100738.47;5077405;28;20057;-49
2022/01/05 09:23:47;;;;;;;15.27;2.45;;;;;;;5.39;93.94;100733.06;5077155;28;20052;-49
2022/01/05 09:26:15;;;;;;;13.45;3.40;;;;;;;5.90;90.59;100742.53;5077534;28;20060;-51
2022/01/05 09:28:44;;;;;;;15.30;3.47;;;;;;;6.28;87.58;100734.91;5078184;28;20064;-51
2022/01/05 09:31:14;;;;;;;6.15;1.85;;;;;;;6.77;83.91;100728.53;5077516;28;20063;-51
2022/01/05 09:33:42;;;;;;;12.95;1.73;;;;;;;7.59;76.93;100741.59;5077201;28;20052;-49
2022/01/05 09:36:15;;;;;;;10.40;2.03;;;;;;;8.65;70.57;100743.63;5077141;28;20067;-49
2022/01/05 09:44:15;;;;;;;7.18;1.83;;;;;;;11.65;60.16;100753.28;5076985;28;20524;-49
2022/01/05 09:46:57;;;;;;;9.20;2.00;;;;;;;13.61;51.65;100758.94;5076949;28;20056;-51
2022/01/05 09:49:29;;;;;;;6.10;1.88;;;;;;;15.01;48.63;100758.47;5076687;28;20553;-49
2022/01/05 09:52:04;;;;;;;10.93;1.77;;;;;;;15.01;48.63;100758.47;5076902;28;20056;-50
2022/01/05 09:54:34;;;;;;;8.40;1.70;;;;;;;15.50;43.00;100769.84;5077515;28;20052;-51
2022/01/05 09:57:03;;;;;;;7.70;2.10;;;;;;;14.43;45.23;100769.06;5077061;28;20052;-49
2022/01/05 09:59:34;;;;;;;13.50;2.20;;;;;;;13.57;48.77;100776.13;5077144;28;20057;-49
2022/01/05 10:02:04;;;;;;;11.40;2.25;;;;;;;12.31;49.86;100784.63;5076786;28;20504;-50
2022/01/05 10:04:33;;;;;;;8.68;1.80;;;;;;;11.34;53.58;100772.91;5077653;28;20052;-48
2022/01/05 10:07:02;;;;;;;5.60;1.55;;;;;;;10.71;55.41;100780.19;5076545;28;20103;-51
2022/01/05 10:09:31;;;;;;;11.68;2.63;;;;;;;10.26;57.13;100773.03;5077587;28;20067;-49
2022/01/05 10:11:59;;;;;;;8.07;2.13;;;;;;;9.95;59.28;100775.59;5076492;28;20553;-51
2022/01/05 10:14:27;;;;;;;7.03;1.80;;;;;;;9.74;58.35;100779.44;5076893;28;20060;-51
2022/01/05 10:17:07;;;;;;;7.90;1.98;;;;;;;9.39;61.27;100782.16;5076732;28;20083;-50
2022/01/05 10:19:37;;;;;;;10.20;3.17;;;;;;;9.18;60.56;100779.72;5077534;28;20389;-49
2022/01/05 10:22:32;;;;;;;9.98;1.70;;;;;;;8.40;62.79;100779.16;5076053;28;20057;-50
2022/01/05 10:25:01;;;;;;;7.97;1.73;;;;;;;8.27;64.69;100780.69;5076199;28;20052;-51
2022/01/05 10:27:29;;;;;;;12.88;2.40;;;;;;;9.91;63.31;100789.94;5076514;28;20057;-49
2022/01/05 10:30:00;;;;;;;6.85;2.03;;;;;;;12.53;54.98;100784.06;5076477;28;20056;-49
2022/01/05 10:32:32;;;;;;;9.20;2.33;;;;;;;14.40;48.69;100802.16;5075378;28;20057;-51
2022/01/05 10:35:03;;;;;;;8.10;2.47;;;;;;;15.11;44.73;100796.88;5075832;28;20542;-49
2022/01/05 10:37:32;;;;;;;8.15;2.20;;;;;;;13.73;47.21;100808.75;5076635;28;20052;-51
2022/01/05 10:40:09;;;;;;;6.65;2.00;;;;;;;14.58;46.93;100818.63;5075959;28;20052;-50
2022/01/05 10:42:38;;;;;;;7.38;2.00;;;;;;;15.45;44.34;100818.34;5076516;28;20057;-49
2022/01/05 10:45:08;;;;;;;8.10;1.73;;;;;;;15.56;44.04;100810.31;5075585;28;20511;-50
2022/01/05 10:47:38;;;;;;;9.68;2.50;;;;;;;15.35;43.58;100809.34;5076367;28;20068;-51
2022/01/05 10:50:11;;;;;;;5.18;1.48;;;;;;;14.78;44.66;100817.19;5076098;28;20067;-50
2022/01/05 10:52:41;;;;;;;9.27;2.13;;;;;;;14.31;45.98;100813.50;5075447;28;20053;-50
2022/01/05 10:55:12;;;;;;;8.98;1.85;;;;;;;13.19;47.67;100814.22;5076306;28;20049;-49
2022/01/05 10:57:40;;;;;;;8.93;1.90;;;;;;;12.05;50.43;100821.69;5076023;28;20053;-52
2022/01/05 11:00:09;;;;;;;6.03;1.60;;;;;;;11.35;53.73;100817.13;5075828;28;20064;-50
2022/01/05 11:02:40;;;;;;;4.72;1.42;;;;;;;10.46;55.76;100823.16;5076579;28;20053;-51
2022/01/05 11:05:15;;;;;;;6.22;1.75;;;;;;;9.65;59.13;100820.53;5075923;28;20068;-52
2022/01/05 11:07:47;;;;;;;6.20;1.60;;;;;;;9.13;62.33;100818.78;5075310;28;20530;-49
2022/01/05 11:10:17;;;;;;;8.15;1.77;;;;;;;9.06;63.47;100817.38;5075939;28;20057;-50
2022/01/05 11:12:46;;;;;;;5.20;1.27;;;;;;;9.06;63.54;100820.03;5075140;28;20092;-49
2022/01/05 11:15:27;;;;;;;9.70;1.80;;;;;;;8.69;64.47;100816.56;5075037;28;20500;-49
2022/01/05 11:18:14;;;;;;;10.77;1.58;;;;;;;8.61;65.50;100824.91;5074923;28;20056;-52
2022/01/05 11:20:46;;;;;;;8.63;1.85;;;;;;;8.43;65.07;100829.28;5074851;28;20052;-50
2022/01/05 11:23:15;;;;;;;7.68;2.53;;;;;;;8.27;65.27;100822.97;5075079;28;20463;-51
2022/01/05 11:25:45;;;;;;;10.77;1.98;;;;;;;8.19;66.89;100815.44;5075034;28;20508;-52
2022/01/05 11:28:14;;;;;;;6.70;1.95;;;;;;;8.19;67.29;100818.06;5075920;28;20098;-50
2022/01/05 11:30:44;;;;;;;9.93;1.98;;;;;;;8.13;67.33;100821.84;5075519;28;20052;-52
2022/01/05 11:33:14;;;;;;;6.13;1.58;;;;;;;7.93;68.16;100822.75;5075150;28;20056;-51
2022/01/05 11:35:42;;;;;;;8.30;1.88;;;;;;;7.78;68.39;100821.69;5074558;28;20071;-51
2022/01/05 11:38:11;;;;;;;8.95;2.08;;;;;;;7.59;70.01;100820.81;5075176;28;20052;-51